sensor_id;sensor_type;location;lat;lon;timestamp;temperature;humidity
11474;DHT22;5793;52.238;13.438;2023-11-19T00:00:21;4.30;99.90
11474;DHT22;5793;52.238;13.438;2023-11-19T00:02:50;4.40;99.90
11474;DHT22;5793;52.238;13.438;2023-11-19T00:05:18;4.40;99.90
11474;DHT22;5793;52.238;13.438;2023-11-19T00:07:47;4.40;99.90
11474;DHT22;5793;52.238;13.438;2023-11-19T00:10:16;4.40;99.90
11474;DHT22;5793;52.238;13.438;2023-11-19T00:12:46;4.40;99.90
11474;DHT22;5793;52.238;13.438;2023-11-19T00:15:16;4.40;99.90
11474;DHT22;5793;52.238;13.438;2023-11-19T00:17:46;4.40;99.90
11474;DHT22;5793;52.238;13.438;2023-11-19T00:20:15;4.40;99.90
11474;DHT22;5793;52.238;13.438;2023-11-19T00:22:44;4.40;99.90
11474;DHT22;5793;52.238;13.438;2023-11-19T00:25:18;4.40;99.90
11474;DHT22;5793;52.238;13.438;2023-11-19T00:27:46;4.40;99.90
11474;DHT22;5793;52.238;13.438;2023-11-19T00:30:14;4.40;99.90
11474;DHT22;5793;52.238;13.438;2023-11-19T00:32:43;4.40;99.90
11474;DHT22;5793;52.238;13.438;2023-11-19T00:35:12;4.40;99.90
11474;DHT22;5793;52.238;13.438;2023-11-19T00:37:41;4.50;99.90
11474;DHT22;5793;52.238;13.438;2023-11-19T00:40:12;4.50;99.90
11474;DHT22;5793;52.238;13.438;2023-11-19T00:42:44;4.50;99.90
11474;DHT22;5793;52.238;13.438;2023-11-19T00:45:11;4.50;99.90
11474;DHT22;5793;52.238;13.438;2023-11-19T00:47:40;4.50;99.90
11474;DHT22;5793;52.238;13.438;2023-11-19T00:50:08;4.50;99.90
11474;DHT22;5793;52.238;13.438;2023-11-19T00:52:37;4.50;99.90
11474;DHT22;5793;52.238;13.438;2023-11-19T00:55:06;4.50;99.90
11474;DHT22;5793;52.238;13.438;2023-11-19T00:57:34;4.60;99.90
11474;DHT22;5793;52.238;13.438;2023-11-19T01:00:05;4.60;99.90
11474;DHT22;5793;52.238;13.438;2023-11-19T01:02:45;4.50;99.90
11474;DHT22;5793;52.238;13.438;2023-11-19T01:05:13;4.60;99.90
11474;DHT22;5793;52.238;13.438;2023-11-19T01:07:41;4.60;99.90
11474;DHT22;5793;52.238;13.438;2023-11-19T01:10:09;4.60;99.90
11474;DHT22;5793;52.238;13.438;2023-11-19T01:12:38;4.60;99.90
11474;DHT22;5793;52.238;13.438;2023-11-19T01:15:08;4.60;99.90
11474;DHT22;5793;52.238;13.438;2023-11-19T01:17:36;4.60;99.90
11474;DHT22;5793;52.238;13.438;2023-11-19T01:20:05;4.70;99.90
11474;DHT22;5793;52.238;13.438;2023-11-19T01:22:34;4.70;99.90
11474;DHT22;5793;52.238;13.438;2023-11-19T01:25:02;4.80;99.90
11474;DHT22;5793;52.238;13.438;2023-11-19T01:27:31;4.80;99.90
11474;DHT22;5793;52.238;13.438;2023-11-19T01:30:01;4.80;99.90
11474;DHT22;5793;52.238;13.438;2023-11-19T01:32:31;4.90;99.90
11474;DHT22;5793;52.238;13.438;2023-11-19T01:34:59;4.90;99.90
11474;DHT22;5793;52.238;13.438;2023-11-19T01:37:27;4.90;99.90
11474;DHT22;5793;52.238;13.438;2023-11-19T01:39:55;4.90;99.90
11474;DHT22;5793;52.238;13.438;2023-11-19T01:42:25;4.90;99.90
11474;DHT22;5793;52.238;13.438;2023-11-19T01:44:57;4.90;99.90
11474;DHT22;5793;52.238;13.438;2023-11-19T01:47:26;4.90;99.90
11474;DHT22;5793;52.238;13.438;2023-11-19T01:49:56;5.00;99.90
11474;DHT22;5793;52.238;13.438;2023-11-19T01:52:25;4.90;99.90
11474;DHT22;5793;52.238;13.438;2023-11-19T01:54:53;5.00;99.90
11474;DHT22;5793;52.238;13.438;2023-11-19T01:57:22;5.00;99.90
11474;DHT22;5793;52.238;13.438;2023-11-19T01:59:51;4.90;99.90
11474;DHT22;5793;52.238;13.438;2023-11-19T02:02:20;5.00;99.90
11474;DHT22;5793;52.238;13.438;2023-11-19T02:04:49;5.00;99.90
11474;DHT22;5793;52.238;13.438;2023-11-19T02:07:20;5.00;99.90
11474;DHT22;5793;52.238;13.438;2023-11-19T02:09:48;5.00;99.90
11474;DHT22;5793;52.238;13.438;2023-11-19T02:12:16;5.00;99.90
11474;DHT22;5793;52.238;13.438;2023-11-19T02:14:43;5.10;99.90
11474;DHT22;5793;52.238;13.438;2023-11-19T02:17:25;5.10;99.90
11474;DHT22;5793;52.238;13.438;2023-11-19T02:19:53;5.00;99.90
11474;DHT22;5793;52.238;13.438;2023-11-19T02:22:22;5.10;99.90
11474;DHT22;5793;52.238;13.438;2023-11-19T02:24:53;5.00;99.90
11474;DHT22;5793;52.238;13.438;2023-11-19T02:27:28;5.00;99.90
11474;DHT22;5793;52.238;13.438;2023-11-19T02:29:59;5.00;99.90
11474;DHT22;5793;52.238;13.438;2023-11-19T02:32:27;5.00;99.90
11474;DHT22;5793;52.238;13.438;2023-11-19T02:34:57;5.00;99.90
11474;DHT22;5793;52.238;13.438;2023-11-19T02:37:34;4.90;99.90
11474;DHT22;5793;52.238;13.438;2023-11-19T02:40:02;4.90;99.90
11474;DHT22;5793;52.238;13.438;2023-11-19T02:42:31;4.90;99.90
11474;DHT22;5793;52.238;13.438;2023-11-19T02:45:01;5.00;99.90
11474;DHT22;5793;52.238;13.438;2023-11-19T02:47:32;5.00;99.90
11474;DHT22;5793;52.238;13.438;2023-11-19T02:50:01;4.90;99.90
11474;DHT22;5793;52.238;13.438;2023-11-19T02:52:29;5.00;99.90
11474;DHT22;5793;52.238;13.438;2023-11-19T02:55:01;5.00;99.90
11474;DHT22;5793;52.238;13.438;2023-11-19T02:57:31;5.00;99.90
11474;DHT22;5793;52.238;13.438;2023-11-19T03:00:00;4.90;99.90
11474;DHT22;5793;52.238;13.438;2023-11-19T03:02:32;4.90;99.90
11474;DHT22;5793;52.238;13.438;2023-11-19T03:05:10;5.10;99.90
11474;DHT22;5793;52.238;13.438;2023-11-19T03:07:38;5.10;99.90
11474;DHT22;5793;52.238;13.438;2023-11-19T03:10:07;5.20;99.90
11474;DHT22;5793;52.238;13.438;2023-11-19T03:12:35;5.20;99.90
11474;DHT22;5793;52.238;13.438;2023-11-19T03:15:05;5.20;99.90
11474;DHT22;5793;52.238;13.438;2023-11-19T03:17:33;5.20;99.90
11474;DHT22;5793;52.238;13.438;2023-11-19T03:20:01;5.30;99.90
11474;DHT22;5793;52.238;13.438;2023-11-19T03:22:29;5.30;99.90
11474;DHT22;5793;52.238;13.438;2023-11-19T03:24:57;5.30;99.90
11474;DHT22;5793;52.238;13.438;2023-11-19T03:27:25;5.30;99.90
11474;DHT22;5793;52.238;13.438;2023-11-19T03:29:53;5.30;99.90
11474;DHT22;5793;52.238;13.438;2023-11-19T03:32:22;5.20;99.90
11474;DHT22;5793;52.238;13.438;2023-11-19T03:34:50;5.20;99.90
11474;DHT22;5793;52.238;13.438;2023-11-19T03:37:17;5.20;99.90
11474;DHT22;5793;52.238;13.438;2023-11-19T03:39:46;5.20;99.90
11474;DHT22;5793;52.238;13.438;2023-11-19T03:42:13;5.10;99.90
11474;DHT22;5793;52.238;13.438;2023-11-19T03:44:41;5.10;99.90
11474;DHT22;5793;52.238;13.438;2023-11-19T03:47:09;5.00;99.90
11474;DHT22;5793;52.238;13.438;2023-11-19T03:49:38;4.90;99.90
11474;DHT22;5793;52.238;13.438;2023-11-19T03:52:06;4.80;99.90
11474;DHT22;5793;52.238;13.438;2023-11-19T03:54:45;4.70;99.90
11474;DHT22;5793;52.238;13.438;2023-11-19T03:57:13;4.70;99.90
11474;DHT22;5793;52.238;13.438;2023-11-19T03:59:42;4.70;99.90
11474;DHT22;5793;52.238;13.438;2023-11-19T04:02:10;4.70;99.90
11474;DHT22;5793;52.238;13.438;2023-11-19T04:04:39;4.60;99.90
11474;DHT22;5793;52.238;13.438;2023-11-19T04:07:07;4.70;99.90
11474;DHT22;5793;52.238;13.438;2023-11-19T04:09:35;4.50;99.90
11474;DHT22;5793;52.238;13.438;2023-11-19T04:12:05;4.50;99.90
11474;DHT22;5793;52.238;13.438;2023-11-19T04:14:33;4.50;99.90
11474;DHT22;5793;52.238;13.438;2023-11-19T04:17:01;4.50;99.90
11474;DHT22;5793;52.238;13.438;2023-11-19T04:19:29;4.50;99.90
11474;DHT22;5793;52.238;13.438;2023-11-19T04:22:00;4.50;99.90
11474;DHT22;5793;52.238;13.438;2023-11-19T04:24:28;4.50;99.90
11474;DHT22;5793;52.238;13.438;2023-11-19T04:26:56;4.50;99.90
11474;DHT22;5793;52.238;13.438;2023-11-19T04:29:24;4.40;99.90
11474;DHT22;5793;52.238;13.438;2023-11-19T04:31:52;4.40;99.90
11474;DHT22;5793;52.238;13.438;2023-11-19T04:34:20;4.50;99.90
11474;DHT22;5793;52.238;13.438;2023-11-19T04:36:48;4.50;99.90
11474;DHT22;5793;52.238;13.438;2023-11-19T04:39:17;4.50;99.90
11474;DHT22;5793;52.238;13.438;2023-11-19T04:41:46;4.50;99.90
11474;DHT22;5793;52.238;13.438;2023-11-19T04:44:14;4.40;99.90
11474;DHT22;5793;52.238;13.438;2023-11-19T04:46:43;4.40;99.90
11474;DHT22;5793;52.238;13.438;2023-11-19T04:49:12;4.40;99.90
11474;DHT22;5793;52.238;13.438;2023-11-19T04:51:40;4.40;99.90
11474;DHT22;5793;52.238;13.438;2023-11-19T04:54:09;4.40;99.90
11474;DHT22;5793;52.238;13.438;2023-11-19T04:56:38;4.40;99.90
11474;DHT22;5793;52.238;13.438;2023-11-19T04:59:06;4.40;99.90
11474;DHT22;5793;52.238;13.438;2023-11-19T05:01:35;4.40;99.90
11474;DHT22;5793;52.238;13.438;2023-11-19T05:04:03;4.40;99.90
11474;DHT22;5793;52.238;13.438;2023-11-19T05:06:32;4.40;99.90
11474;DHT22;5793;52.238;13.438;2023-11-19T05:09:00;4.50;99.90
11474;DHT22;5793;52.238;13.438;2023-11-19T05:11:32;4.50;99.90
11474;DHT22;5793;52.238;13.438;2023-11-19T05:14:03;4.50;99.90
11474;DHT22;5793;52.238;13.438;2023-11-19T05:16:31;4.60;99.90
11474;DHT22;5793;52.238;13.438;2023-11-19T05:18:59;4.60;99.90
11474;DHT22;5793;52.238;13.438;2023-11-19T05:21:27;4.60;99.90
11474;DHT22;5793;52.238;13.438;2023-11-19T05:23:55;4.70;99.90
11474;DHT22;5793;52.238;13.438;2023-11-19T05:26:24;4.70;99.90
11474;DHT22;5793;52.238;13.438;2023-11-19T05:28:51;4.70;99.90
11474;DHT22;5793;52.238;13.438;2023-11-19T05:31:20;4.60;99.90
11474;DHT22;5793;52.238;13.438;2023-11-19T05:33:48;4.60;99.90
11474;DHT22;5793;52.238;13.438;2023-11-19T05:36:16;4.60;99.90
11474;DHT22;5793;52.238;13.438;2023-11-19T05:38:44;4.60;99.90
11474;DHT22;5793;52.238;13.438;2023-11-19T05:41:12;4.60;99.90
11474;DHT22;5793;52.238;13.438;2023-11-19T05:43:40;4.60;99.90
11474;DHT22;5793;52.238;13.438;2023-11-19T05:46:08;4.60;99.90
11474;DHT22;5793;52.238;13.438;2023-11-19T05:48:40;4.60;99.90
11474;DHT22;5793;52.238;13.438;2023-11-19T05:51:08;4.60;99.90
11474;DHT22;5793;52.238;13.438;2023-11-19T05:53:35;4.70;99.90
11474;DHT22;5793;52.238;13.438;2023-11-19T05:56:04;4.60;99.90
11474;DHT22;5793;52.238;13.438;2023-11-19T05:58:32;4.60;99.90
11474;DHT22;5793;52.238;13.438;2023-11-19T06:01:00;4.60;99.90
11474;DHT22;5793;52.238;13.438;2023-11-19T06:03:29;4.60;99.90
11474;DHT22;5793;52.238;13.438;2023-11-19T06:05:59;4.60;99.90
11474;DHT22;5793;52.238;13.438;2023-11-19T06:08:26;4.60;99.90
11474;DHT22;5793;52.238;13.438;2023-11-19T06:10:54;4.60;99.90
11474;DHT22;5793;52.238;13.438;2023-11-19T06:13:22;4.60;99.90
11474;DHT22;5793;52.238;13.438;2023-11-19T06:15:52;4.60;99.90
11474;DHT22;5793;52.238;13.438;2023-11-19T06:18:20;4.70;99.90
11474;DHT22;5793;52.238;13.438;2023-11-19T06:20:50;4.70;99.90
11474;DHT22;5793;52.238;13.438;2023-11-19T06:23:19;4.70;99.90
11474;DHT22;5793;52.238;13.438;2023-11-19T06:25:47;4.70;99.90
11474;DHT22;5793;52.238;13.438;2023-11-19T06:28:14;4.70;99.90
11474;DHT22;5793;52.238;13.438;2023-11-19T06:30:42;4.70;99.90
11474;DHT22;5793;52.238;13.438;2023-11-19T06:33:14;4.70;99.90
11474;DHT22;5793;52.238;13.438;2023-11-19T06:35:42;4.80;99.90
11474;DHT22;5793;52.238;13.438;2023-11-19T06:38:10;4.80;99.90
11474;DHT22;5793;52.238;13.438;2023-11-19T06:40:39;4.80;99.90
11474;DHT22;5793;52.238;13.438;2023-11-19T06:43:07;4.80;99.90
11474;DHT22;5793;52.238;13.438;2023-11-19T06:45:36;4.80;99.90
11474;DHT22;5793;52.238;13.438;2023-11-19T06:48:04;4.80;99.90
11474;DHT22;5793;52.238;13.438;2023-11-19T06:50:32;4.80;99.90
11474;DHT22;5793;52.238;13.438;2023-11-19T06:53:00;4.80;99.90
11474;DHT22;5793;52.238;13.438;2023-11-19T06:55:28;4.90;99.90
11474;DHT22;5793;52.238;13.438;2023-11-19T06:57:59;4.90;99.90
11474;DHT22;5793;52.238;13.438;2023-11-19T07:00:28;4.90;99.90
11474;DHT22;5793;52.238;13.438;2023-11-19T07:02:59;5.00;99.90
11474;DHT22;5793;52.238;13.438;2023-11-19T07:05:27;4.90;99.90
11474;DHT22;5793;52.238;13.438;2023-11-19T07:07:58;5.00;99.90
11474;DHT22;5793;52.238;13.438;2023-11-19T07:10:25;5.00;99.90
11474;DHT22;5793;52.238;13.438;2023-11-19T07:12:53;5.00;99.90
11474;DHT22;5793;52.238;13.438;2023-11-19T07:15:22;5.00;99.90
11474;DHT22;5793;52.238;13.438;2023-11-19T07:17:50;5.00;99.90
11474;DHT22;5793;52.238;13.438;2023-11-19T07:20:20;5.00;99.90
11474;DHT22;5793;52.238;13.438;2023-11-19T07:22:48;5.00;99.90
11474;DHT22;5793;52.238;13.438;2023-11-19T07:25:16;5.10;99.90
11474;DHT22;5793;52.238;13.438;2023-11-19T07:27:44;5.10;99.90
11474;DHT22;5793;52.238;13.438;2023-11-19T07:30:14;5.20;99.90
11474;DHT22;5793;52.238;13.438;2023-11-19T07:32:43;5.20;99.90
11474;DHT22;5793;52.238;13.438;2023-11-19T07:35:11;5.20;99.90
11474;DHT22;5793;52.238;13.438;2023-11-19T07:37:38;5.30;99.90
11474;DHT22;5793;52.238;13.438;2023-11-19T07:40:07;5.30;99.90
11474;DHT22;5793;52.238;13.438;2023-11-19T07:42:35;5.30;99.90
11474;DHT22;5793;52.238;13.438;2023-11-19T07:45:05;5.30;99.90
11474;DHT22;5793;52.238;13.438;2023-11-19T07:47:33;5.30;99.90
11474;DHT22;5793;52.238;13.438;2023-11-19T07:50:03;5.40;99.90
11474;DHT22;5793;52.238;13.438;2023-11-19T07:52:31;5.40;99.90
11474;DHT22;5793;52.238;13.438;2023-11-19T07:54:59;5.50;99.90
11474;DHT22;5793;52.238;13.438;2023-11-19T07:57:27;5.50;99.90
11474;DHT22;5793;52.238;13.438;2023-11-19T07:59:57;5.60;99.90
11474;DHT22;5793;52.238;13.438;2023-11-19T08:02:25;5.60;99.90
11474;DHT22;5793;52.238;13.438;2023-11-19T08:04:53;5.60;99.90
11474;DHT22;5793;52.238;13.438;2023-11-19T08:07:23;5.70;99.90
11474;DHT22;5793;52.238;13.438;2023-11-19T08:09:51;5.70;99.90
11474;DHT22;5793;52.238;13.438;2023-11-19T08:12:18;5.80;99.90
11474;DHT22;5793;52.238;13.438;2023-11-19T08:14:46;5.90;99.90
11474;DHT22;5793;52.238;13.438;2023-11-19T08:17:15;5.80;99.90
11474;DHT22;5793;52.238;13.438;2023-11-19T08:19:43;5.90;99.90
11474;DHT22;5793;52.238;13.438;2023-11-19T08:22:11;5.90;99.90
11474;DHT22;5793;52.238;13.438;2023-11-19T08:24:40;6.00;99.90
11474;DHT22;5793;52.238;13.438;2023-11-19T08:27:08;6.10;99.90
11474;DHT22;5793;52.238;13.438;2023-11-19T08:29:36;6.10;99.90
11474;DHT22;5793;52.238;13.438;2023-11-19T08:32:04;6.20;99.90
11474;DHT22;5793;52.238;13.438;2023-11-19T08:34:33;6.30;99.90
11474;DHT22;5793;52.238;13.438;2023-11-19T08:37:01;6.50;99.90
11474;DHT22;5793;52.238;13.438;2023-11-19T08:39:29;6.60;99.90
11474;DHT22;5793;52.238;13.438;2023-11-19T08:41:58;6.70;99.90
11474;DHT22;5793;52.238;13.438;2023-11-19T08:44:26;6.80;99.90
11474;DHT22;5793;52.238;13.438;2023-11-19T08:46:54;6.90;99.90
11474;DHT22;5793;52.238;13.438;2023-11-19T08:49:22;7.00;99.90
11474;DHT22;5793;52.238;13.438;2023-11-19T08:51:49;7.10;99.90
11474;DHT22;5793;52.238;13.438;2023-11-19T08:54:17;7.30;99.90
11474;DHT22;5793;52.238;13.438;2023-11-19T08:56:46;7.40;99.90
11474;DHT22;5793;52.238;13.438;2023-11-19T08:59:16;7.40;99.90
11474;DHT22;5793;52.238;13.438;2023-11-19T09:01:45;7.50;99.90
11474;DHT22;5793;52.238;13.438;2023-11-19T09:04:13;7.50;99.90
11474;DHT22;5793;52.238;13.438;2023-11-19T09:06:41;7.60;99.90
11474;DHT22;5793;52.238;13.438;2023-11-19T09:09:09;7.60;99.90
11474;DHT22;5793;52.238;13.438;2023-11-19T09:11:37;7.70;99.90
11474;DHT22;5793;52.238;13.438;2023-11-19T09:14:04;7.80;99.90
11474;DHT22;5793;52.238;13.438;2023-11-19T09:16:34;7.90;99.90
11474;DHT22;5793;52.238;13.438;2023-11-19T09:19:02;8.00;99.90
11474;DHT22;5793;52.238;13.438;2023-11-19T09:21:32;8.00;99.90
11474;DHT22;5793;52.238;13.438;2023-11-19T09:24:01;8.00;99.90
11474;DHT22;5793;52.238;13.438;2023-11-19T09:26:29;8.10;99.90
11474;DHT22;5793;52.238;13.438;2023-11-19T09:28:57;8.20;99.90
11474;DHT22;5793;52.238;13.438;2023-11-19T09:31:25;8.40;99.90
11474;DHT22;5793;52.238;13.438;2023-11-19T09:33:54;8.60;99.90
11474;DHT22;5793;52.238;13.438;2023-11-19T09:36:22;8.70;99.90
11474;DHT22;5793;52.238;13.438;2023-11-19T09:38:50;8.90;99.90
11474;DHT22;5793;52.238;13.438;2023-11-19T09:41:18;9.00;99.90
11474;DHT22;5793;52.238;13.438;2023-11-19T09:43:47;9.00;99.90
11474;DHT22;5793;52.238;13.438;2023-11-19T09:46:15;8.90;99.90
11474;DHT22;5793;52.238;13.438;2023-11-19T09:48:44;8.90;99.90
11474;DHT22;5793;52.238;13.438;2023-11-19T09:51:16;9.10;99.90
11474;DHT22;5793;52.238;13.438;2023-11-19T09:53:44;9.30;99.90
11474;DHT22;5793;52.238;13.438;2023-11-19T09:56:12;9.20;99.90
11474;DHT22;5793;52.238;13.438;2023-11-19T09:58:41;9.20;99.90
11474;DHT22;5793;52.238;13.438;2023-11-19T10:01:09;9.40;99.90
11474;DHT22;5793;52.238;13.438;2023-11-19T10:03:42;9.60;99.90
11474;DHT22;5793;52.238;13.438;2023-11-19T10:06:11;9.70;99.90
11474;DHT22;5793;52.238;13.438;2023-11-19T10:08:41;10.00;99.90
11474;DHT22;5793;52.238;13.438;2023-11-19T10:11:10;10.10;99.90
11474;DHT22;5793;52.238;13.438;2023-11-19T10:13:39;10.00;99.90
11474;DHT22;5793;52.238;13.438;2023-11-19T10:16:09;9.80;99.90
11474;DHT22;5793;52.238;13.438;2023-11-19T10:18:43;9.60;99.90
11474;DHT22;5793;52.238;13.438;2023-11-19T10:21:12;9.60;99.90
11474;DHT22;5793;52.238;13.438;2023-11-19T10:23:51;9.60;99.90
11474;DHT22;5793;52.238;13.438;2023-11-19T10:26:20;10.00;99.90
11474;DHT22;5793;52.238;13.438;2023-11-19T10:28:49;10.40;99.90
11474;DHT22;5793;52.238;13.438;2023-11-19T10:31:18;10.50;99.90
11474;DHT22;5793;52.238;13.438;2023-11-19T10:33:49;10.70;99.90
11474;DHT22;5793;52.238;13.438;2023-11-19T10:36:18;10.70;99.90
11474;DHT22;5793;52.238;13.438;2023-11-19T10:38:54;10.70;99.90
11474;DHT22;5793;52.238;13.438;2023-11-19T10:41:28;10.70;99.90
11474;DHT22;5793;52.238;13.438;2023-11-19T10:43:57;10.70;99.90
11474;DHT22;5793;52.238;13.438;2023-11-19T10:46:36;10.60;99.90
11474;DHT22;5793;52.238;13.438;2023-11-19T10:49:05;10.70;99.90
11474;DHT22;5793;52.238;13.438;2023-11-19T10:51:34;11.10;99.90
11474;DHT22;5793;52.238;13.438;2023-11-19T10:54:05;11.30;99.90
11474;DHT22;5793;52.238;13.438;2023-11-19T10:56:34;11.30;99.90
11474;DHT22;5793;52.238;13.438;2023-11-19T10:59:02;11.80;99.90
11474;DHT22;5793;52.238;13.438;2023-11-19T11:01:52;12.20;99.90
11474;DHT22;5793;52.238;13.438;2023-11-19T11:04:23;12.60;99.90
11474;DHT22;5793;52.238;13.438;2023-11-19T11:06:51;12.70;99.90
11474;DHT22;5793;52.238;13.438;2023-11-19T11:09:23;12.50;99.90
11474;DHT22;5793;52.238;13.438;2023-11-19T11:11:51;12.30;99.90
11474;DHT22;5793;52.238;13.438;2023-11-19T11:14:21;12.10;99.90
11474;DHT22;5793;52.238;13.438;2023-11-19T11:16:49;11.80;99.90
11474;DHT22;5793;52.238;13.438;2023-11-19T11:19:19;11.60;99.90
11474;DHT22;5793;52.238;13.438;2023-11-19T11:21:51;11.50;99.90
11474;DHT22;5793;52.238;13.438;2023-11-19T11:24:41;11.40;99.90
11474;DHT22;5793;52.238;13.438;2023-11-19T11:27:31;11.50;99.90
11474;DHT22;5793;52.238;13.438;2023-11-19T11:30:11;11.60;99.90
11474;DHT22;5793;52.238;13.438;2023-11-19T11:32:44;11.50;99.90
11474;DHT22;5793;52.238;13.438;2023-11-19T11:35:27;11.70;99.90
11474;DHT22;5793;52.238;13.438;2023-11-19T11:38:01;12.00;99.90
11474;DHT22;5793;52.238;13.438;2023-11-19T11:40:32;12.50;99.90
11474;DHT22;5793;52.238;13.438;2023-11-19T11:43:00;12.70;99.90
11474;DHT22;5793;52.238;13.438;2023-11-19T11:45:35;12.80;99.90
11474;DHT22;5793;52.238;13.438;2023-11-19T11:48:11;12.90;99.90
11474;DHT22;5793;52.238;13.438;2023-11-19T11:50:54;13.00;99.90
11474;DHT22;5793;52.238;13.438;2023-11-19T11:53:23;13.00;99.90
11474;DHT22;5793;52.238;13.438;2023-11-19T11:55:57;13.00;99.90
11474;DHT22;5793;52.238;13.438;2023-11-19T11:58:35;13.10;99.90
11474;DHT22;5793;52.238;13.438;2023-11-19T12:01:05;13.00;99.90
11474;DHT22;5793;52.238;13.438;2023-11-19T12:03:33;13.00;99.90
11474;DHT22;5793;52.238;13.438;2023-11-19T12:06:02;12.90;99.90
11474;DHT22;5793;52.238;13.438;2023-11-19T12:08:30;12.80;99.90
11474;DHT22;5793;52.238;13.438;2023-11-19T12:11:00;12.70;99.90
11474;DHT22;5793;52.238;13.438;2023-11-19T12:13:47;12.70;99.90
11474;DHT22;5793;52.238;13.438;2023-11-19T12:16:15;12.70;99.90
11474;DHT22;5793;52.238;13.438;2023-11-19T12:18:43;12.70;99.90
11474;DHT22;5793;52.238;13.438;2023-11-19T12:21:12;12.70;99.90
11474;DHT22;5793;52.238;13.438;2023-11-19T12:23:54;12.70;99.90
11474;DHT22;5793;52.238;13.438;2023-11-19T12:26:35;12.60;99.90
11474;DHT22;5793;52.238;13.438;2023-11-19T12:29:03;12.70;99.90
11474;DHT22;5793;52.238;13.438;2023-11-19T12:31:36;12.70;99.90
11474;DHT22;5793;52.238;13.438;2023-11-19T12:34:10;12.80;99.90
11474;DHT22;5793;52.238;13.438;2023-11-19T12:36:40;12.70;99.90
11474;DHT22;5793;52.238;13.438;2023-11-19T12:39:10;12.70;99.90
11474;DHT22;5793;52.238;13.438;2023-11-19T12:41:52;12.70;99.90
11474;DHT22;5793;52.238;13.438;2023-11-19T12:44:21;12.60;99.90
11474;DHT22;5793;52.238;13.438;2023-11-19T12:47:02;12.60;99.90
11474;DHT22;5793;52.238;13.438;2023-11-19T12:49:31;12.60;99.90
11474;DHT22;5793;52.238;13.438;2023-11-19T12:51:59;12.40;99.90
11474;DHT22;5793;52.238;13.438;2023-11-19T12:54:34;12.30;99.90
11474;DHT22;5793;52.238;13.438;2023-11-19T12:57:04;12.20;99.90
11474;DHT22;5793;52.238;13.438;2023-11-19T12:59:33;12.20;99.90
11474;DHT22;5793;52.238;13.438;2023-11-19T13:02:00;12.10;99.90
11474;DHT22;5793;52.238;13.438;2023-11-19T13:04:30;12.10;99.90
11474;DHT22;5793;52.238;13.438;2023-11-19T13:07:00;12.00;99.90
11474;DHT22;5793;52.238;13.438;2023-11-19T13:09:32;12.10;99.90
11474;DHT22;5793;52.238;13.438;2023-11-19T13:12:14;12.10;99.90
11474;DHT22;5793;52.238;13.438;2023-11-19T13:14:43;11.90;99.90
11474;DHT22;5793;52.238;13.438;2023-11-19T13:17:14;11.90;99.90
11474;DHT22;5793;52.238;13.438;2023-11-19T13:19:42;11.80;99.90
11474;DHT22;5793;52.238;13.438;2023-11-19T13:22:09;11.70;99.90
11474;DHT22;5793;52.238;13.438;2023-11-19T13:24:37;11.80;99.90
11474;DHT22;5793;52.238;13.438;2023-11-19T13:27:07;11.80;99.90
11474;DHT22;5793;52.238;13.438;2023-11-19T13:29:36;11.90;99.90
11474;DHT22;5793;52.238;13.438;2023-11-19T13:32:04;11.80;99.90
11474;DHT22;5793;52.238;13.438;2023-11-19T13:34:32;11.80;99.90
11474;DHT22;5793;52.238;13.438;2023-11-19T13:37:00;11.70;99.90
11474;DHT22;5793;52.238;13.438;2023-11-19T13:39:28;11.70;99.90
11474;DHT22;5793;52.238;13.438;2023-11-19T13:41:56;11.80;99.90
11474;DHT22;5793;52.238;13.438;2023-11-19T13:44:26;11.70;99.90
11474;DHT22;5793;52.238;13.438;2023-11-19T13:46:56;11.70;99.90
11474;DHT22;5793;52.238;13.438;2023-11-19T13:49:23;11.70;99.90
11474;DHT22;5793;52.238;13.438;2023-11-19T13:51:51;11.60;99.90
11474;DHT22;5793;52.238;13.438;2023-11-19T13:54:20;11.60;99.90
11474;DHT22;5793;52.238;13.438;2023-11-19T13:56:49;11.60;99.90
11474;DHT22;5793;52.238;13.438;2023-11-19T13:59:20;11.70;99.90
11474;DHT22;5793;52.238;13.438;2023-11-19T14:01:48;11.80;99.90
11474;DHT22;5793;52.238;13.438;2023-11-19T14:04:18;11.80;99.90
11474;DHT22;5793;52.238;13.438;2023-11-19T14:06:46;11.80;99.90
11474;DHT22;5793;52.238;13.438;2023-11-19T14:09:14;11.80;99.90
11474;DHT22;5793;52.238;13.438;2023-11-19T14:11:42;11.70;99.90
11474;DHT22;5793;52.238;13.438;2023-11-19T14:14:09;11.50;99.90
11474;DHT22;5793;52.238;13.438;2023-11-19T14:16:37;11.50;99.90
11474;DHT22;5793;52.238;13.438;2023-11-19T14:19:06;11.50;99.90
11474;DHT22;5793;52.238;13.438;2023-11-19T14:21:35;11.60;99.90
11474;DHT22;5793;52.238;13.438;2023-11-19T14:24:04;11.50;99.90
11474;DHT22;5793;52.238;13.438;2023-11-19T14:26:32;11.60;99.90
11474;DHT22;5793;52.238;13.438;2023-11-19T14:28:59;11.50;99.90
11474;DHT22;5793;52.238;13.438;2023-11-19T14:31:28;11.40;99.90
11474;DHT22;5793;52.238;13.438;2023-11-19T14:33:56;11.40;99.90
11474;DHT22;5793;52.238;13.438;2023-11-19T14:36:23;11.30;99.90
11474;DHT22;5793;52.238;13.438;2023-11-19T14:38:53;11.10;99.90
11474;DHT22;5793;52.238;13.438;2023-11-19T14:41:21;11.10;99.90
11474;DHT22;5793;52.238;13.438;2023-11-19T14:43:48;11.00;99.90
11474;DHT22;5793;52.238;13.438;2023-11-19T14:46:16;11.00;99.90
11474;DHT22;5793;52.238;13.438;2023-11-19T14:48:44;11.10;99.90
11474;DHT22;5793;52.238;13.438;2023-11-19T14:51:12;11.20;99.90
11474;DHT22;5793;52.238;13.438;2023-11-19T14:53:40;11.20;99.90
11474;DHT22;5793;52.238;13.438;2023-11-19T14:56:11;11.20;99.90
11474;DHT22;5793;52.238;13.438;2023-11-19T14:58:40;11.30;99.90
11474;DHT22;5793;52.238;13.438;2023-11-19T15:01:11;11.20;99.90
11474;DHT22;5793;52.238;13.438;2023-11-19T15:03:39;11.30;99.90
11474;DHT22;5793;52.238;13.438;2023-11-19T15:06:10;11.30;99.90
11474;DHT22;5793;52.238;13.438;2023-11-19T15:08:38;11.30;99.90
11474;DHT22;5793;52.238;13.438;2023-11-19T15:11:06;11.40;99.90
11474;DHT22;5793;52.238;13.438;2023-11-19T15:13:37;11.30;99.90
11474;DHT22;5793;52.238;13.438;2023-11-19T15:16:07;11.40;99.90
11474;DHT22;5793;52.238;13.438;2023-11-19T15:18:37;11.40;99.90
11474;DHT22;5793;52.238;13.438;2023-11-19T15:21:06;11.50;99.90
11474;DHT22;5793;52.238;13.438;2023-11-19T15:23:35;11.50;99.90
11474;DHT22;5793;52.238;13.438;2023-11-19T15:26:03;11.50;99.90
11474;DHT22;5793;52.238;13.438;2023-11-19T15:28:33;11.40;99.90
11474;DHT22;5793;52.238;13.438;2023-11-19T15:31:02;11.40;99.90
11474;DHT22;5793;52.238;13.438;2023-11-19T15:33:30;11.30;99.90
11474;DHT22;5793;52.238;13.438;2023-11-19T15:35:58;11.40;99.90
11474;DHT22;5793;52.238;13.438;2023-11-19T15:38:28;11.40;99.90
11474;DHT22;5793;52.238;13.438;2023-11-19T15:40:56;11.40;99.90
11474;DHT22;5793;52.238;13.438;2023-11-19T15:43:24;11.40;99.90
11474;DHT22;5793;52.238;13.438;2023-11-19T15:45:53;11.40;99.90
11474;DHT22;5793;52.238;13.438;2023-11-19T15:48:22;11.40;99.90
11474;DHT22;5793;52.238;13.438;2023-11-19T15:50:51;11.40;99.90
11474;DHT22;5793;52.238;13.438;2023-11-19T15:53:19;11.40;99.90